createdAt,value
2023-05-11T00:00:39.985Z,12.41
2023-05-11T00:01:39.939Z,12.38
2023-05-11T00:02:39.986Z,12.38
2023-05-11T00:03:39.982Z,12.38
2023-05-11T00:04:39.964Z,12.38
2023-05-11T00:05:39.895Z,12.41
2023-05-11T00:06:39.884Z,12.42
2023-05-11T00:07:39.859Z,12.44
2023-05-11T00:08:39.850Z,12.44
2023-05-11T00:09:39.840Z,12.44
2023-05-11T00:10:39.851Z,12.46
2023-05-11T00:11:39.808Z,12.48
2023-05-11T00:12:39.805Z,12.48
2023-05-11T00:13:39.792Z,12.46
2023-05-11T00:14:39.769Z,12.42
2023-05-11T00:15:39.768Z,12.41
2023-05-11T00:16:39.753Z,12.38
2023-05-11T00:17:39.768Z,12.38
2023-05-11T00:18:39.751Z,12.37
2023-05-11T00:19:39.706Z,12.37
2023-05-11T00:20:39.691Z,12.33
2023-05-11T00:21:39.673Z,12.34
2023-05-11T00:22:39.658Z,12.33
2023-05-11T00:23:39.682Z,12.37
2023-05-11T00:24:39.643Z,12.37
2023-05-11T00:25:39.629Z,12.38
2023-05-11T00:26:39.616Z,12.39
2023-05-11T00:27:39.623Z,12.41
2023-05-11T00:28:39.613Z,12.39
2023-05-11T00:29:39.583Z,12.38
2023-05-11T00:30:39.564Z,12.37
2023-05-11T00:31:39.567Z,12.34
2023-05-11T00:32:39.600Z,12.34
2023-05-11T00:33:39.517Z,12.34
2023-05-11T00:34:39.512Z,12.33
2023-05-11T00:35:39.497Z,12.33
2023-05-11T00:36:41.079Z,12.34
2023-05-11T00:37:39.586Z,12.30
2023-05-11T00:38:39.461Z,12.24
2023-05-11T00:39:39.442Z,12.21
2023-05-11T00:40:39.434Z,12.20
2023-05-11T00:41:39.457Z,12.20
2023-05-11T00:42:39.421Z,12.21
2023-05-11T00:43:39.399Z,12.21
2023-05-11T00:44:39.409Z,12.23
2023-05-11T00:45:39.363Z,12.21
2023-05-11T00:46:39.434Z,12.21
2023-05-11T00:47:39.354Z,12.24
2023-05-11T00:48:39.356Z,12.24
2023-05-11T00:49:39.314Z,12.21
2023-05-11T00:50:39.298Z,12.21
2023-05-11T00:51:39.304Z,12.21
2023-05-11T00:52:39.277Z,12.21
2023-05-11T00:53:39.259Z,12.21
2023-05-11T00:54:39.254Z,12.21
2023-05-11T00:55:39.225Z,12.21
2023-05-11T00:56:39.227Z,12.20
2023-05-11T00:57:39.209Z,12.19
2023-05-11T00:58:39.197Z,12.19
2023-05-11T00:59:39.176Z,12.15
2023-05-11T01:00:39.236Z,12.19
2023-05-11T01:01:39.177Z,12.19
2023-05-11T01:02:39.350Z,12.19
2023-05-11T01:03:39.123Z,12.16
2023-05-11T01:04:39.105Z,12.16
2023-05-11T01:05:39.112Z,12.16
2023-05-11T01:06:39.094Z,12.16
2023-05-11T01:07:39.079Z,12.20
2023-05-11T01:08:39.069Z,12.23
2023-05-11T01:09:39.051Z,12.21
2023-05-11T01:10:39.044Z,12.21
2023-05-11T01:11:39.058Z,12.20
2023-05-11T01:12:39.016Z,12.20
2023-05-11T01:13:38.992Z,12.19
2023-05-11T01:14:39.008Z,12.16
2023-05-11T01:15:38.989Z,12.13
2023-05-11T01:16:39.033Z,12.12
2023-05-11T01:17:38.972Z,12.11
2023-05-11T01:18:38.964Z,12.11
2023-05-11T01:19:38.926Z,12.08
2023-05-11T01:20:38.965Z,12.09
2023-05-11T01:21:38.897Z,12.09
2023-05-11T01:22:38.899Z,12.09
2023-05-11T01:23:38.882Z,12.09
2023-05-11T01:24:38.867Z,12.06
2023-05-11T01:25:38.872Z,12.08
2023-05-11T01:26:38.836Z,12.08
2023-05-11T01:27:38.827Z,12.08
2023-05-11T01:28:38.821Z,12.06
2023-05-11T01:29:38.801Z,12.08
2023-05-11T01:30:38.781Z,12.09
2023-05-11T01:31:38.783Z,12.11
2023-05-11T01:32:40.836Z,12.12
2023-05-11T01:33:38.763Z,12.12
2023-05-11T01:34:38.744Z,12.11
2023-05-11T01:35:38.710Z,12.11
2023-05-11T01:36:38.710Z,12.12
2023-05-11T01:37:38.679Z,12.09
2023-05-11T01:38:38.690Z,12.08
2023-05-11T01:39:38.655Z,12.04
2023-05-11T01:40:38.657Z,12.02
2023-05-11T01:41:38.654Z,12.02
2023-05-11T01:42:38.637Z,11.99
2023-05-11T01:43:38.615Z,11.99
2023-05-11T01:44:38.602Z,12.01
2023-05-11T01:45:38.594Z,11.99
2023-05-11T01:46:38.762Z,11.99
2023-05-11T01:47:38.626Z,12.02
2023-05-11T01:48:38.571Z,12.04
2023-05-11T01:49:38.542Z,12.05
2023-05-11T01:50:38.520Z,12.04
2023-05-11T01:51:38.506Z,12.05
2023-05-11T01:52:38.504Z,12.04
2023-05-11T01:53:38.481Z,12.02
2023-05-11T01:54:38.469Z,12.01
2023-05-11T01:55:38.460Z,12.01
2023-05-11T01:56:38.448Z,12.04
2023-05-11T01:57:38.444Z,12.04
2023-05-11T01:58:38.409Z,12.05
2023-05-11T01:59:38.393Z,12.06
2023-05-11T02:00:38.384Z,12.08
2023-05-11T02:01:38.430Z,12.05
2023-05-11T02:02:38.450Z,12.06
2023-05-11T02:03:38.410Z,12.08
2023-05-11T02:04:38.327Z,12.06
2023-05-11T02:05:38.320Z,12.05
2023-05-11T02:06:38.320Z,12.02
2023-05-11T02:07:38.307Z,12.04
2023-05-11T02:08:38.295Z,12.02
2023-05-11T02:09:38.266Z,11.99
2023-05-11T02:10:38.287Z,11.96
2023-05-11T02:11:38.254Z,11.97
2023-05-11T02:12:38.235Z,11.99
2023-05-11T02:13:38.218Z,12.02
2023-05-11T02:14:38.234Z,12.05
2023-05-11T02:15:38.269Z,12.05
2023-05-11T02:16:38.201Z,12.08
2023-05-11T02:17:38.210Z,12.08
2023-05-11T02:18:38.209Z,12.11
2023-05-11T02:19:38.157Z,12.13
2023-05-11T02:20:38.133Z,12.12
2023-05-11T02:21:38.109Z,12.12
2023-05-11T02:22:38.109Z,12.13
2023-05-11T02:23:38.082Z,12.11
2023-05-11T02:24:38.073Z,12.09
2023-05-11T02:25:38.070Z,12.09
2023-05-11T02:26:38.065Z,12.08
2023-05-11T02:27:38.049Z,12.08
2023-05-11T02:28:38.022Z,12.08
2023-05-11T02:29:38.026Z,12.05
2023-05-11T02:30:38.007Z,12.04
2023-05-11T02:31:38.005Z,12.04
2023-05-11T02:32:38.015Z,12.02
2023-05-11T02:33:37.970Z,12.04
2023-05-11T02:34:37.960Z,11.99
2023-05-11T02:35:37.941Z,11.97
2023-05-11T02:36:37.934Z,11.94
2023-05-11T02:37:37.908Z,11.96
2023-05-11T02:38:37.909Z,11.94
2023-05-11T02:39:37.891Z,11.90
2023-05-11T02:40:37.874Z,11.89
2023-05-11T02:41:37.860Z,11.87
2023-05-11T02:42:37.841Z,11.87
2023-05-11T02:43:37.853Z,11.90
2023-05-11T02:44:37.826Z,11.90
2023-05-11T02:45:37.832Z,11.89
2023-05-11T02:46:37.844Z,11.86
2023-05-11T02:47:37.803Z,11.86
2023-05-11T02:48:37.782Z,11.85
2023-05-11T02:49:37.755Z,11.86
2023-05-11T02:50:37.729Z,11.87
2023-05-11T02:51:37.739Z,11.90
2023-05-11T02:52:37.718Z,11.90
2023-05-11T02:53:37.714Z,11.94
2023-05-11T02:54:37.700Z,11.94
2023-05-11T02:55:37.680Z,11.94
2023-05-11T02:56:37.674Z,11.94
2023-05-11T02:57:37.665Z,11.94
2023-05-11T02:58:37.725Z,11.96
2023-05-11T02:59:37.641Z,11.96
2023-05-11T03:00:37.677Z,11.90
2023-05-11T03:01:37.649Z,11.90
2023-05-11T03:02:37.762Z,11.90
2023-05-11T03:03:37.808Z,11.93
2023-05-11T03:04:37.575Z,11.90
2023-05-11T03:05:37.558Z,11.87
2023-05-11T03:06:37.536Z,11.87
2023-05-11T03:07:37.545Z,11.89
2023-05-11T03:08:37.507Z,11.87
2023-05-11T03:09:37.499Z,11.85
2023-05-11T03:10:37.498Z,11.85
2023-05-11T03:11:37.470Z,11.87
2023-05-11T03:12:37.466Z,11.87
2023-05-11T03:13:37.467Z,11.85
2023-05-11T03:14:37.426Z,11.87
2023-05-11T03:15:37.430Z,11.89
2023-05-11T03:16:37.496Z,11.87
2023-05-11T03:17:37.439Z,11.87
2023-05-11T03:18:37.422Z,11.89
2023-05-11T03:19:37.375Z,11.90
2023-05-11T03:20:37.354Z,11.89
2023-05-11T03:21:37.369Z,11.86
2023-05-11T03:22:37.325Z,11.83
2023-05-11T03:23:37.326Z,11.78
2023-05-11T03:24:37.305Z,11.78
2023-05-11T03:25:37.288Z,11.77
2023-05-11T03:26:37.290Z,11.77
2023-05-11T03:27:37.276Z,11.75
2023-05-11T03:28:37.254Z,11.77
2023-05-11T03:29:37.248Z,11.75
2023-05-11T03:30:37.236Z,11.77
2023-05-11T03:31:37.280Z,11.72
2023-05-11T03:32:37.277Z,11.70
2023-05-11T03:33:37.201Z,11.68
2023-05-11T03:34:37.201Z,11.70
2023-05-11T03:35:37.193Z,11.70
2023-05-11T03:36:37.154Z,11.71
2023-05-11T03:37:37.146Z,11.65
2023-05-11T03:38:37.118Z,11.59
2023-05-11T03:39:37.125Z,11.56
2023-05-11T03:40:37.125Z,11.54
2023-05-11T03:41:37.093Z,11.53
2023-05-11T03:42:37.071Z,11.54
2023-05-11T03:43:37.072Z,11.54
2023-05-11T03:44:37.072Z,11.61
2023-05-11T03:45:37.038Z,11.61
2023-05-11T03:46:37.164Z,11.59
2023-05-11T03:47:37.042Z,11.59
2023-05-11T03:48:37.009Z,11.59
2023-05-11T03:49:36.996Z,11.57
2023-05-11T04:03:10.107Z,11.64
2023-05-11T04:04:09.977Z,11.65
2023-05-11T04:05:09.949Z,11.67
2023-05-11T04:06:09.932Z,11.68
2023-05-11T04:07:09.908Z,11.68
2023-05-11T04:08:09.913Z,11.70
2023-05-11T04:09:09.898Z,11.70
2023-05-11T04:10:09.884Z,11.71
2023-05-11T04:11:09.869Z,11.72
2023-05-11T04:12:09.865Z,11.74
2023-05-11T04:13:09.858Z,11.72
2023-05-11T04:14:09.822Z,11.72
2023-05-11T04:15:09.806Z,11.72
2023-05-11T04:16:09.829Z,11.72
2023-05-11T04:17:09.804Z,11.72
2023-05-11T04:18:09.848Z,11.72
2023-05-11T04:19:09.759Z,11.71
2023-05-11T04:20:09.751Z,11.71
2023-05-11T04:21:09.749Z,11.70
2023-05-11T04:22:09.729Z,11.71
2023-05-11T04:23:10.548Z,11.70
2023-05-11T04:24:09.690Z,11.74
2023-05-11T04:25:09.696Z,11.75
2023-05-11T04:26:09.680Z,11.75
2023-05-11T04:27:09.652Z,11.77
2023-05-11T04:28:09.638Z,11.78
2023-05-11T04:29:09.631Z,11.78
2023-05-11T04:30:09.622Z,11.77
2023-05-11T04:31:09.620Z,11.78
2023-05-11T04:32:09.598Z,11.80
2023-05-11T04:33:09.566Z,11.77
2023-05-11T04:34:09.561Z,11.77
2023-05-11T04:35:09.551Z,11.75
2023-05-11T04:36:09.548Z,11.74
2023-05-11T04:37:09.523Z,11.74
2023-05-11T04:38:09.495Z,11.74
2023-05-11T04:39:09.501Z,11.77
2023-05-11T04:40:09.469Z,11.80
2023-05-11T04:41:09.504Z,11.80
2023-05-11T04:42:09.446Z,11.77
2023-05-11T04:43:09.444Z,11.77
2023-05-11T04:44:09.437Z,11.78
2023-05-11T04:45:09.424Z,11.80
2023-05-11T04:46:09.434Z,11.85
2023-05-11T04:47:09.451Z,11.87
2023-05-11T04:48:09.470Z,11.87
2023-05-11T04:49:09.371Z,11.89
2023-05-11T04:50:09.353Z,11.89
2023-05-11T04:51:09.353Z,11.90
2023-05-11T04:52:09.327Z,11.87
2023-05-11T04:53:09.315Z,11.89
2023-05-11T04:54:09.296Z,11.89
2023-05-11T04:55:09.291Z,11.90
2023-05-11T04:56:09.267Z,11.90
2023-05-11T04:57:09.272Z,11.90
2023-05-11T04:58:09.242Z,11.94
2023-05-11T04:59:09.243Z,11.87
2023-05-11T05:00:09.264Z,11.85
2023-05-11T05:01:09.246Z,11.86
2023-05-11T05:02:09.190Z,11.85
2023-05-11T05:03:09.269Z,11.86
2023-05-11T05:04:09.199Z,11.78
2023-05-11T05:05:09.168Z,11.70
2023-05-11T05:06:09.143Z,11.65
2023-05-11T05:07:09.141Z,11.62
2023-05-11T05:08:09.120Z,11.62
2023-05-11T05:09:09.114Z,11.64
2023-05-11T05:10:09.149Z,11.65
2023-05-11T05:11:09.094Z,11.62
2023-05-11T05:12:09.071Z,11.62
2023-05-11T05:13:09.049Z,11.61
2023-05-11T05:14:09.047Z,11.59
2023-05-11T05:15:09.024Z,11.59
2023-05-11T05:16:09.020Z,11.54
2023-05-11T05:17:09.071Z,11.52
2023-05-11T05:18:09.003Z,11.49
2023-05-11T05:19:09.009Z,11.46
2023-05-11T05:20:08.962Z,11.47
2023-05-11T05:21:08.935Z,11.47
2023-05-11T05:22:08.932Z,11.49
2023-05-11T05:23:08.936Z,11.52
2023-05-11T05:24:08.907Z,11.50
2023-05-11T05:25:08.902Z,11.50
2023-05-11T05:26:08.882Z,11.50
2023-05-11T05:27:08.881Z,11.50
2023-05-11T05:28:08.864Z,11.54
2023-05-11T05:29:08.845Z,11.54
2023-05-11T05:30:08.822Z,11.53
2023-05-11T05:31:08.849Z,11.53
2023-05-11T05:32:08.815Z,11.53
2023-05-11T05:33:08.804Z,11.54
2023-05-11T05:34:08.771Z,11.53
2023-05-11T05:35:08.770Z,11.53
2023-05-11T05:36:08.759Z,11.54
2023-05-11T05:37:08.751Z,11.59
2023-05-11T05:38:08.723Z,11.65
2023-05-11T05:39:08.714Z,11.64
2023-05-11T05:40:08.698Z,11.59
2023-05-11T05:41:08.688Z,11.57
2023-05-11T05:42:08.692Z,11.54
2023-05-11T05:43:08.669Z,11.46
2023-05-11T05:44:08.657Z,11.44
2023-05-11T05:45:08.634Z,11.44
2023-05-11T05:46:08.680Z,11.46
2023-05-11T05:47:08.621Z,11.50
2023-05-11T05:48:08.625Z,11.52
2023-05-11T05:49:08.593Z,11.53
2023-05-11T05:50:08.570Z,11.47
2023-05-11T05:51:08.570Z,11.46
2023-05-11T05:52:08.543Z,11.47
2023-05-11T05:53:08.527Z,11.47
2023-05-11T05:54:08.514Z,11.49
2023-05-11T05:55:08.515Z,11.52
2023-05-11T05:56:08.497Z,11.53
2023-05-11T05:57:08.496Z,11.56
2023-05-11T05:58:08.449Z,11.52
2023-05-11T05:59:08.456Z,11.52
2023-05-11T06:00:08.439Z,11.52
2023-05-11T06:01:08.432Z,11.53
2023-05-11T06:02:08.415Z,11.56
2023-05-11T06:03:08.543Z,11.57
2023-05-11T06:04:08.521Z,11.57
2023-05-11T06:05:08.381Z,11.59
2023-05-11T06:06:08.355Z,11.54
2023-05-11T06:07:08.355Z,11.54
2023-05-11T06:08:10.980Z,11.54
2023-05-11T06:09:08.304Z,11.57
2023-05-11T06:10:08.310Z,11.61
2023-05-11T06:11:08.281Z,11.57
2023-05-11T06:12:08.279Z,11.53
2023-05-11T06:13:08.257Z,11.50
2023-05-11T06:14:08.255Z,11.50
2023-05-11T06:15:08.245Z,11.52
2023-05-11T06:16:08.274Z,11.47
2023-05-11T06:17:08.234Z,11.46
2023-05-11T06:18:08.252Z,11.47
2023-05-11T06:19:08.271Z,11.46
2023-05-11T06:20:08.177Z,11.47
2023-05-11T06:21:08.162Z,11.46
2023-05-11T06:22:08.148Z,11.44
2023-05-11T06:23:08.185Z,11.39
2023-05-11T06:24:08.127Z,11.41
2023-05-11T06:25:08.111Z,11.36
2023-05-11T06:26:08.086Z,11.36
2023-05-11T06:27:08.078Z,11.39
2023-05-11T06:28:08.081Z,11.43
2023-05-11T06:29:08.117Z,11.44
2023-05-11T06:30:08.031Z,11.46
2023-05-11T06:31:08.030Z,11.46
2023-05-11T06:32:08.178Z,11.46
2023-05-11T06:33:08.112Z,11.46
2023-05-11T06:34:07.984Z,11.49
2023-05-11T06:35:07.987Z,11.52
2023-05-11T06:36:07.962Z,11.53
2023-05-11T06:37:07.946Z,11.54
2023-05-11T06:38:07.947Z,11.53
2023-05-11T06:39:07.949Z,11.50
2023-05-11T06:40:07.912Z,11.52
2023-05-11T06:41:07.901Z,11.56
2023-05-11T06:42:07.877Z,11.57
2023-05-11T06:43:07.880Z,11.57
2023-05-11T06:44:07.857Z,11.61
2023-05-11T06:45:07.894Z,11.56
2023-05-11T06:46:07.878Z,11.59
2023-05-11T06:47:07.840Z,11.61
2023-05-11T06:48:07.870Z,11.64
2023-05-11T06:49:07.800Z,11.68
2023-05-11T06:50:07.775Z,11.71
2023-05-11T06:51:07.769Z,11.71
2023-05-11T06:52:07.746Z,11.71
2023-05-11T06:53:07.740Z,11.72
2023-05-11T06:54:07.815Z,11.67
2023-05-11T06:55:07.712Z,11.67
2023-05-11T06:56:07.695Z,11.70
2023-05-11T06:57:07.725Z,11.68
2023-05-11T06:58:07.681Z,11.70
2023-05-11T06:59:07.670Z,11.70
2023-05-11T07:00:07.653Z,11.72
2023-05-11T07:01:07.759Z,11.77
2023-05-11T07:02:07.625Z,11.82
2023-05-11T07:03:07.738Z,11.86
2023-05-11T07:04:07.660Z,11.86
2023-05-11T07:05:07.635Z,11.89
2023-05-11T07:06:07.583Z,11.94
2023-05-11T07:07:07.561Z,11.99
2023-05-11T07:08:07.532Z,11.94
2023-05-11T07:09:07.522Z,11.89
2023-05-11T07:10:07.505Z,11.87
2023-05-11T07:11:07.548Z,11.86
2023-05-11T07:12:07.482Z,11.85
2023-05-11T07:13:07.484Z,11.86
2023-05-11T07:14:07.465Z,11.87
2023-05-11T07:15:07.465Z,11.93
2023-05-11T07:16:07.443Z,11.94
2023-05-11T07:17:07.463Z,11.96
2023-05-11T07:18:07.469Z,11.97
2023-05-11T07:19:07.474Z,12.01
2023-05-11T07:20:07.389Z,12.01
2023-05-11T07:21:07.374Z,11.99
2023-05-11T07:22:07.360Z,11.97
2023-05-11T07:23:07.337Z,11.96
2023-05-11T07:24:07.368Z,11.90
2023-05-11T07:25:07.326Z,11.94
2023-05-11T07:26:07.291Z,11.96
2023-05-11T07:27:07.288Z,11.96
2023-05-11T07:28:07.288Z,11.97
2023-05-11T07:29:07.258Z,11.97
2023-05-11T07:30:07.267Z,11.93
2023-05-11T07:31:07.272Z,11.89
2023-05-11T07:32:07.234Z,11.87
2023-05-11T07:33:07.254Z,11.89
2023-05-11T07:34:07.184Z,11.90
2023-05-11T07:35:07.184Z,11.93
2023-05-11T07:36:07.156Z,11.97
2023-05-11T07:37:07.159Z,11.97
2023-05-11T07:38:07.134Z,11.94
2023-05-11T07:39:07.139Z,11.97
2023-05-11T07:40:07.126Z,11.99
2023-05-11T07:41:08.313Z,11.97
2023-05-11T07:42:07.096Z,11.96
2023-05-11T07:43:07.085Z,11.94
2023-05-11T07:44:07.084Z,11.93
2023-05-11T07:45:07.050Z,11.89
2023-05-11T07:46:07.075Z,11.87
2023-05-11T07:47:07.017Z,11.89
2023-05-11T07:48:07.028Z,11.87
2023-05-11T07:49:15.610Z,11.89
2023-05-11T07:50:07.978Z,11.87
2023-05-11T07:51:06.970Z,11.85
2023-05-11T07:52:06.949Z,11.83
2023-05-11T07:53:06.951Z,11.83
2023-05-11T07:54:06.937Z,11.82
2023-05-11T07:55:06.920Z,11.82
2023-05-11T07:56:06.892Z,11.83
2023-05-11T07:57:06.910Z,11.85
2023-05-11T07:58:06.895Z,11.86
2023-05-11T07:59:06.863Z,11.85
2023-05-11T08:00:06.854Z,11.82
2023-05-11T08:01:06.831Z,11.83
2023-05-11T08:02:06.872Z,11.86
2023-05-11T08:03:06.864Z,11.89
2023-05-11T08:04:06.794Z,11.90
2023-05-11T08:05:06.793Z,11.94
2023-05-11T08:06:06.815Z,11.96
2023-05-11T08:07:06.771Z,11.99
2023-05-11T08:08:06.758Z,12.04
2023-05-11T08:09:06.731Z,12.02
2023-05-11T08:10:06.720Z,12.06
2023-05-11T08:11:06.708Z,12.04
2023-05-11T08:12:06.693Z,12.04
2023-05-11T08:13:06.684Z,12.04
2023-05-11T08:14:06.668Z,12.05
2023-05-11T08:15:06.673Z,12.05
2023-05-11T08:16:06.681Z,12.06
2023-05-11T08:17:06.667Z,11.97
2023-05-11T08:18:06.680Z,11.97
2023-05-11T08:19:06.660Z,12.04
2023-05-11T08:20:06.716Z,11.96
2023-05-11T08:21:06.579Z,11.97
2023-05-11T08:22:06.575Z,12.01
2023-05-11T08:23:06.583Z,12.02
2023-05-11T08:24:06.534Z,11.96
2023-05-11T08:25:06.532Z,11.96
2023-05-11T08:26:06.527Z,11.96
2023-05-11T08:27:06.493Z,11.93
2023-05-11T08:28:06.497Z,11.89
2023-05-11T08:29:06.479Z,11.93
2023-05-11T08:30:06.466Z,11.93
2023-05-11T08:31:06.500Z,11.89
2023-05-11T08:32:06.534Z,11.93
2023-05-11T08:33:22.843Z,11.90
2023-05-11T08:34:15.791Z,11.96
2023-05-11T08:35:07.610Z,12.02
2023-05-11T08:36:06.374Z,12.08
2023-05-11T08:37:06.361Z,12.04
2023-05-11T08:38:06.347Z,11.99
2023-05-11T08:39:06.337Z,12.04
2023-05-11T08:40:06.333Z,12.05
2023-05-11T08:41:06.313Z,12.01
2023-05-11T08:42:06.299Z,12.01
2023-05-11T08:43:06.279Z,12.04
2023-05-11T08:44:06.280Z,12.01
2023-05-11T08:45:06.265Z,11.97
2023-05-11T08:46:06.271Z,11.97
2023-05-11T08:48:07.240Z,11.96
2023-05-11T08:49:06.224Z,11.97
2023-05-11T08:50:06.200Z,11.99
2023-05-11T08:51:06.196Z,12.02
2023-05-11T08:52:07.810Z,12.02
2023-05-11T08:53:06.154Z,12.02
2023-05-11T08:54:06.160Z,12.04
2023-05-11T08:55:06.357Z,12.01
2023-05-11T08:56:06.141Z,11.99
2023-05-11T08:57:06.102Z,11.97
2023-05-11T08:58:06.103Z,11.99
2023-05-11T08:59:06.081Z,12.01
2023-05-11T09:00:06.049Z,12.02
2023-05-11T09:01:06.093Z,12.02
2023-05-11T09:02:06.060Z,12.04
2023-05-11T09:03:06.112Z,12.05
2023-05-11T09:04:06.008Z,12.04
2023-05-11T09:05:06.014Z,12.04
2023-05-11T09:06:05.975Z,11.99
2023-05-11T09:07:05.972Z,11.94
2023-05-11T09:08:05.958Z,11.87
2023-05-11T09:09:05.934Z,11.86
2023-05-11T09:10:05.982Z,11.87
2023-05-11T09:11:05.909Z,11.89
2023-05-11T09:12:05.909Z,11.90
2023-05-11T09:13:05.900Z,11.93
2023-05-11T09:14:05.881Z,11.89
2023-05-11T09:15:05.887Z,11.85
2023-05-11T09:16:11.313Z,11.83
2023-05-11T09:17:06.960Z,11.85
2023-05-11T09:18:05.959Z,11.80
2023-05-11T09:19:05.829Z,11.83
2023-05-11T09:20:05.949Z,11.85
2023-05-11T09:21:05.774Z,11.87
2023-05-11T09:22:05.778Z,11.94
2023-05-11T09:23:05.749Z,11.96
2023-05-11T09:24:05.735Z,11.94
2023-05-11T09:25:05.727Z,11.97
2023-05-11T09:26:05.723Z,12.02
2023-05-11T09:27:05.717Z,12.05
2023-05-11T09:28:05.684Z,12.08
2023-05-11T09:29:05.718Z,12.11
2023-05-11T09:30:05.656Z,12.15
2023-05-11T09:31:05.685Z,12.23
2023-05-11T09:32:05.640Z,12.29
2023-05-11T09:33:05.673Z,12.37
2023-05-11T09:34:05.614Z,12.42
2023-05-11T09:35:05.620Z,12.39
2023-05-11T09:36:05.607Z,12.39
2023-05-11T09:37:05.576Z,12.42
2023-05-11T09:38:05.585Z,12.42
2023-05-11T09:39:05.548Z,12.41
2023-05-11T09:41:05.536Z,12.51
2023-05-11T09:42:05.660Z,12.57
2023-05-11T09:43:05.501Z,12.57
2023-05-11T09:44:05.498Z,12.56
2023-05-11T09:45:05.501Z,12.52
2023-05-11T09:46:05.499Z,12.54
2023-05-11T09:47:05.442Z,12.52
2023-05-11T10:03:23.202Z,12.38
2023-05-11T10:04:24.161Z,12.33
2023-05-11T10:05:23.083Z,12.30
2023-05-11T10:06:23.082Z,12.24
2023-05-11T10:07:23.069Z,12.24
2023-05-11T10:08:23.064Z,12.27
2023-05-11T10:09:23.034Z,12.31
2023-05-11T10:10:23.022Z,12.34
2023-05-11T10:11:25.459Z,12.37
2023-05-11T10:12:22.992Z,12.37
2023-05-11T10:13:23.007Z,12.39
2023-05-11T10:14:22.969Z,12.42
2023-05-11T10:15:22.965Z,12.42
2023-05-11T10:16:22.995Z,12.48
2023-05-11T10:17:29.977Z,12.49
2023-05-11T10:18:23.076Z,12.52
2023-05-11T10:19:22.903Z,12.57
2023-05-11T10:20:22.899Z,12.60
2023-05-11T10:21:22.905Z,12.63
2023-05-11T10:22:22.947Z,12.62
2023-05-11T10:23:22.844Z,12.64
2023-05-11T10:24:22.876Z,12.67
2023-05-11T10:25:22.848Z,12.66
2023-05-11T10:26:22.824Z,12.66
2023-05-11T10:27:22.817Z,12.70
2023-05-11T10:28:22.791Z,12.74
2023-05-11T10:29:22.769Z,12.78
2023-05-11T10:30:22.762Z,12.79
2023-05-11T10:31:22.790Z,12.79
2023-05-11T10:32:22.867Z,12.64
2023-05-11T10:33:22.719Z,12.64
2023-05-11T10:34:22.712Z,12.60
2023-05-11T10:35:22.692Z,12.62
2023-05-11T10:36:22.689Z,12.62
2023-05-11T10:37:22.664Z,12.62
2023-05-11T10:38:22.798Z,12.66
2023-05-11T10:39:22.636Z,12.69
2023-05-11T10:40:22.639Z,12.74
2023-05-11T10:41:22.625Z,12.75
2023-05-11T10:42:22.615Z,12.81
2023-05-11T10:43:22.583Z,12.88
2023-05-11T10:44:22.568Z,12.95
2023-05-11T10:45:22.600Z,12.97
2023-05-11T10:46:22.557Z,12.96
2023-05-11T10:47:22.544Z,12.95
2023-05-11T10:48:22.521Z,12.89
2023-05-11T10:49:22.526Z,12.87
2023-05-11T10:50:22.514Z,12.92
2023-05-11T10:51:22.475Z,12.92
2023-05-11T10:52:22.477Z,12.95
2023-05-11T10:53:22.458Z,12.96
2023-05-11T10:54:22.454Z,12.89
2023-05-11T10:55:22.438Z,12.88
2023-05-11T10:56:22.415Z,12.85
2023-05-11T10:57:22.403Z,12.84
2023-05-11T10:58:22.391Z,12.78
2023-05-11T10:59:22.408Z,12.79
2023-05-11T11:00:22.585Z,12.79
2023-05-11T11:01:22.382Z,12.75
2023-05-11T11:02:22.380Z,12.71
2023-05-11T11:03:22.313Z,12.59
2023-05-11T11:04:22.331Z,12.59
2023-05-11T11:05:22.496Z,12.54
2023-05-11T11:06:22.306Z,12.51
2023-05-11T11:07:22.274Z,12.49
2023-05-11T11:08:22.280Z,12.42
2023-05-11T11:09:22.259Z,12.44
2023-05-11T11:10:22.232Z,12.46
2023-05-11T11:11:22.224Z,12.42
2023-05-11T11:12:22.205Z,12.41
2023-05-11T11:13:22.211Z,12.39
2023-05-11T11:14:22.178Z,12.42
2023-05-11T11:15:22.172Z,12.45
2023-05-11T11:16:22.174Z,12.45
2023-05-11T11:17:22.216Z,12.41
2023-05-11T11:18:22.170Z,12.38
2023-05-11T11:19:22.118Z,12.39
2023-05-11T11:20:22.110Z,12.44
2023-05-11T11:21:22.904Z,12.41
2023-05-11T11:22:22.089Z,12.38
2023-05-11T11:23:22.072Z,12.41
2023-05-11T11:24:22.053Z,12.44
2023-05-11T11:25:22.029Z,12.48
2023-05-11T11:26:22.021Z,12.49
2023-05-11T11:27:22.020Z,12.46
2023-05-11T11:28:22.015Z,12.48
2023-05-11T11:29:21.987Z,12.46
2023-05-11T11:30:21.965Z,12.49
2023-05-11T11:31:22.027Z,12.51
2023-05-11T11:32:21.954Z,12.49
2023-05-11T11:33:21.952Z,12.46
2023-05-11T11:34:21.927Z,12.45
2023-05-11T11:35:21.897Z,12.41
2023-05-11T11:36:21.893Z,12.41
2023-05-11T11:37:21.881Z,12.39
2023-05-11T11:38:21.873Z,12.38
2023-05-11T11:39:21.874Z,12.37
2023-05-11T11:40:21.848Z,12.34
2023-05-11T11:41:21.831Z,12.29
2023-05-11T11:42:21.804Z,12.26
2023-05-11T11:43:21.804Z,12.26
2023-05-11T11:44:21.794Z,12.23
2023-05-11T11:45:21.774Z,12.23
2023-05-11T11:46:21.785Z,12.24
2023-05-11T11:47:21.763Z,12.23
2023-05-11T11:48:21.745Z,12.24
2023-05-11T11:49:21.719Z,12.26
2023-05-11T11:50:21.704Z,12.26
2023-05-11T11:51:21.683Z,12.24
2023-05-11T11:52:21.678Z,12.29
2023-05-11T11:53:21.676Z,12.27
2023-05-11T11:54:21.645Z,12.29
2023-05-11T11:55:21.638Z,12.33
2023-05-11T11:56:21.622Z,12.37
2023-05-11T11:57:21.620Z,12.41
2023-05-11T11:58:21.593Z,12.42
2023-05-11T11:59:21.587Z,12.42
2023-05-11T12:00:21.575Z,12.45
2023-05-11T12:01:21.579Z,12.48
2023-05-11T12:02:21.544Z,12.54
2023-05-11T12:03:21.617Z,12.57
2023-05-11T12:04:21.581Z,12.60
2023-05-11T12:05:22.017Z,12.62
2023-05-11T12:06:21.497Z,12.64
2023-05-11T12:07:21.475Z,12.70
2023-05-11T12:08:21.470Z,12.78
2023-05-11T12:09:21.515Z,12.82
2023-05-11T12:10:21.443Z,12.84
2023-05-11T12:11:21.451Z,12.85
2023-05-11T12:12:21.409Z,12.88
2023-05-11T12:13:21.432Z,12.92
2023-05-11T12:14:21.408Z,12.92
2023-05-11T12:15:21.376Z,12.95
2023-05-11T12:16:21.382Z,13.00
2023-05-11T12:17:21.420Z,13.00
2023-05-11T12:18:21.436Z,13.03
2023-05-11T12:19:21.342Z,13.04
2023-05-11T12:20:21.322Z,13.04
2023-05-11T12:21:21.317Z,13.03
2023-05-11T12:22:21.280Z,13.06
2023-05-11T12:23:21.274Z,13.02
2023-05-11T12:24:21.241Z,13.00
2023-05-11T12:25:21.412Z,12.97
2023-05-11T12:26:21.220Z,12.97
2023-05-11T12:27:21.225Z,12.95
2023-05-11T12:28:21.200Z,12.95
2023-05-11T12:29:21.192Z,12.95
2023-05-11T12:30:21.172Z,12.95
2023-05-11T12:31:21.235Z,12.95
2023-05-11T12:32:21.151Z,12.96
2023-05-11T12:33:21.168Z,12.93
2023-05-11T12:34:21.136Z,12.81
2023-05-11T12:35:21.119Z,12.74
2023-05-11T12:36:21.102Z,12.63
2023-05-11T12:37:21.085Z,12.57
2023-05-11T12:38:21.072Z,12.52
2023-05-11T12:39:21.062Z,12.51
2023-05-11T12:40:21.101Z,12.48
2023-05-11T12:41:21.038Z,12.45
2023-05-11T12:42:21.022Z,12.41
2023-05-11T12:43:21.025Z,12.42
2023-05-11T12:44:21.043Z,12.44
2023-05-11T12:45:21.126Z,12.48
2023-05-11T12:46:21.048Z,12.48
2023-05-11T12:47:20.976Z,12.49
2023-05-11T12:48:20.942Z,12.52
2023-05-11T12:50:20.925Z,12.44
2023-05-11T12:51:20.914Z,12.46
2023-05-11T12:52:20.900Z,12.51
2023-05-11T12:53:20.884Z,12.56
2023-05-11T12:54:20.877Z,12.62
2023-05-11T12:55:20.900Z,12.63
2023-05-11T12:56:20.838Z,12.63
2023-05-11T12:57:20.829Z,12.67
2023-05-11T12:58:20.836Z,12.71
2023-05-11T12:59:20.818Z,12.71
2023-05-11T13:00:21.874Z,12.78
2023-05-11T13:01:20.813Z,12.82
2023-05-11T13:02:20.832Z,12.81
2023-05-11T13:03:20.831Z,12.79
2023-05-11T13:04:20.746Z,12.84
2023-05-11T13:05:21.093Z,12.89
2023-05-11T13:06:20.723Z,12.95
2023-05-11T13:07:20.705Z,12.97
2023-05-11T13:08:20.710Z,13.00
2023-05-11T13:09:20.680Z,13.00
2023-05-11T13:10:20.672Z,13.02
2023-05-11T13:11:20.645Z,13.07
2023-05-11T13:12:20.638Z,13.00
2023-05-11T13:13:20.632Z,13.00
2023-05-11T13:14:20.625Z,13.04
2023-05-11T13:15:20.765Z,13.04
2023-05-11T13:16:20.650Z,13.09
2023-05-11T13:17:20.596Z,13.11
2023-05-11T13:18:20.640Z,13.09
2023-05-11T13:19:20.547Z,13.09
2023-05-11T13:20:20.557Z,13.04
2023-05-11T13:21:20.533Z,13.03
2023-05-11T13:22:20.594Z,13.00
2023-05-11T13:23:20.487Z,12.97